sensor_id;sensor_type;location;lat;lon;timestamp;P1;durP1;ratioP1;P2;durP2;ratioP2
2388;SDS011;1205;47.984;7.668;2023-08-07T00:00:13;1.50;;;1.40;;
2388;SDS011;1205;47.984;7.668;2023-08-07T00:02:38;1.70;;;1.60;;
2388;SDS011;1205;47.984;7.668;2023-08-07T00:05:05;3.83;;;2.00;;
2388;SDS011;1205;47.984;7.668;2023-08-07T00:07:31;1.97;;;1.73;;
2388;SDS011;1205;47.984;7.668;2023-08-07T00:09:56;3.23;;;1.70;;
2388;SDS011;1205;47.984;7.668;2023-08-07T00:12:22;2.13;;;1.70;;
2388;SDS011;1205;47.984;7.668;2023-08-07T00:14:49;1.50;;;1.40;;
2388;SDS011;1205;47.984;7.668;2023-08-07T00:17:15;3.63;;;2.17;;
2388;SDS011;1205;47.984;7.668;2023-08-07T00:19:41;1.90;;;1.23;;
2388;SDS011;1205;47.984;7.668;2023-08-07T00:22:06;1.53;;;1.40;;
2388;SDS011;1205;47.984;7.668;2023-08-07T00:24:32;1.53;;;1.53;;
2388;SDS011;1205;47.984;7.668;2023-08-07T00:26:57;1.50;;;1.40;;
2388;SDS011;1205;47.984;7.668;2023-08-07T00:29:23;1.67;;;1.57;;
2388;SDS011;1205;47.984;7.668;2023-08-07T00:31:48;3.80;;;1.67;;
2388;SDS011;1205;47.984;7.668;2023-08-07T00:34:14;1.77;;;1.67;;
2388;SDS011;1205;47.984;7.668;2023-08-07T00:36:40;1.47;;;1.47;;
2388;SDS011;1205;47.984;7.668;2023-08-07T00:39:05;2.97;;;2.00;;
2388;SDS011;1205;47.984;7.668;2023-08-07T00:41:32;1.67;;;1.57;;
2388;SDS011;1205;47.984;7.668;2023-08-07T00:43:58;1.40;;;1.40;;
2388;SDS011;1205;47.984;7.668;2023-08-07T00:46:23;2.10;;;1.60;;
2388;SDS011;1205;47.984;7.668;2023-08-07T00:48:49;1.40;;;1.30;;
2388;SDS011;1205;47.984;7.668;2023-08-07T00:51:17;1.97;;;1.50;;
2388;SDS011;1205;47.984;7.668;2023-08-07T00:53:42;2.57;;;1.77;;
2388;SDS011;1205;47.984;7.668;2023-08-07T00:56:08;2.77;;;1.73;;
2388;SDS011;1205;47.984;7.668;2023-08-07T00:58:34;1.60;;;1.50;;
2388;SDS011;1205;47.984;7.668;2023-08-07T01:01:01;3.80;;;1.60;;
2388;SDS011;1205;47.984;7.668;2023-08-07T01:03:27;4.30;;;1.70;;
2388;SDS011;1205;47.984;7.668;2023-08-07T01:05:52;1.87;;;1.77;;
2388;SDS011;1205;47.984;7.668;2023-08-07T01:08:18;2.97;;;1.40;;
2388;SDS011;1205;47.984;7.668;2023-08-07T01:19:04;2.47;;;1.33;;
2388;SDS011;1205;47.984;7.668;2023-08-07T01:21:38;4.40;;;1.47;;
2388;SDS011;1205;47.984;7.668;2023-08-07T01:24:03;1.80;;;1.70;;
2388;SDS011;1205;47.984;7.668;2023-08-07T01:26:29;1.80;;;1.70;;
2388;SDS011;1205;47.984;7.668;2023-08-07T01:29:05;2.70;;;1.67;;
2388;SDS011;1205;47.984;7.668;2023-08-07T01:31:36;2.20;;;1.83;;
2388;SDS011;1205;47.984;7.668;2023-08-07T01:34:05;1.33;;;1.33;;
2388;SDS011;1205;47.984;7.668;2023-08-07T01:36:33;2.03;;;1.80;;
2388;SDS011;1205;47.984;7.668;2023-08-07T01:39:00;1.83;;;1.73;;
2388;SDS011;1205;47.984;7.668;2023-08-07T01:41:27;2.90;;;1.80;;
2388;SDS011;1205;47.984;7.668;2023-08-07T01:43:54;2.07;;;1.70;;
2388;SDS011;1205;47.984;7.668;2023-08-07T01:46:20;4.10;;;1.60;;
2388;SDS011;1205;47.984;7.668;2023-08-07T01:48:46;2.07;;;1.80;;
2388;SDS011;1205;47.984;7.668;2023-08-07T01:51:11;1.97;;;1.63;;
2388;SDS011;1205;47.984;7.668;2023-08-07T01:53:37;2.47;;;1.60;;
2388;SDS011;1205;47.984;7.668;2023-08-07T01:56:03;2.20;;;2.10;;
2388;SDS011;1205;47.984;7.668;2023-08-07T01:58:28;2.37;;;2.00;;
2388;SDS011;1205;47.984;7.668;2023-08-07T02:00:54;2.00;;;1.73;;
2388;SDS011;1205;47.984;7.668;2023-08-07T02:03:19;2.13;;;1.97;;
2388;SDS011;1205;47.984;7.668;2023-08-07T02:05:45;3.77;;;2.00;;
2388;SDS011;1205;47.984;7.668;2023-08-07T02:08:11;1.50;;;1.40;;
2388;SDS011;1205;47.984;7.668;2023-08-07T02:10:37;1.93;;;1.83;;
2388;SDS011;1205;47.984;7.668;2023-08-07T02:13:03;2.33;;;1.90;;
2388;SDS011;1205;47.984;7.668;2023-08-07T02:15:28;4.23;;;1.47;;
2388;SDS011;1205;47.984;7.668;2023-08-07T02:17:54;3.03;;;2.10;;
2388;SDS011;1205;47.984;7.668;2023-08-07T02:20:20;1.90;;;1.80;;
2388;SDS011;1205;47.984;7.668;2023-08-07T02:22:45;2.77;;;1.90;;
2388;SDS011;1205;47.984;7.668;2023-08-07T02:25:11;3.20;;;2.37;;
2388;SDS011;1205;47.984;7.668;2023-08-07T02:27:36;4.00;;;1.70;;
2388;SDS011;1205;47.984;7.668;2023-08-07T02:30:02;7.70;;;2.00;;
2388;SDS011;1205;47.984;7.668;2023-08-07T02:32:28;1.90;;;1.80;;
2388;SDS011;1205;47.984;7.668;2023-08-07T02:34:54;2.00;;;1.90;;
2388;SDS011;1205;47.984;7.668;2023-08-07T02:37:20;2.63;;;1.80;;
2388;SDS011;1205;47.984;7.668;2023-08-07T02:39:46;1.80;;;1.53;;
2388;SDS011;1205;47.984;7.668;2023-08-07T02:42:11;2.37;;;1.80;;
2388;SDS011;1205;47.984;7.668;2023-08-07T02:44:37;1.60;;;1.50;;
2388;SDS011;1205;47.984;7.668;2023-08-07T02:47:03;2.50;;;1.67;;
2388;SDS011;1205;47.984;7.668;2023-08-07T02:49:28;2.60;;;2.20;;
2388;SDS011;1205;47.984;7.668;2023-08-07T02:51:54;1.30;;;1.20;;
2388;SDS011;1205;47.984;7.668;2023-08-07T02:54:19;2.10;;;2.00;;
2388;SDS011;1205;47.984;7.668;2023-08-07T02:56:45;1.90;;;1.80;;
2388;SDS011;1205;47.984;7.668;2023-08-07T02:59:11;6.20;;;1.93;;
2388;SDS011;1205;47.984;7.668;2023-08-07T03:01:36;1.57;;;1.47;;
2388;SDS011;1205;47.984;7.668;2023-08-07T03:04:02;2.77;;;1.70;;
2388;SDS011;1205;47.984;7.668;2023-08-07T03:06:28;4.40;;;1.97;;
2388;SDS011;1205;47.984;7.668;2023-08-07T03:08:53;3.20;;;2.30;;
2388;SDS011;1205;47.984;7.668;2023-08-07T03:11:19;2.10;;;2.00;;
2388;SDS011;1205;47.984;7.668;2023-08-07T03:13:44;2.10;;;1.60;;
2388;SDS011;1205;47.984;7.668;2023-08-07T03:16:10;2.13;;;2.03;;
2388;SDS011;1205;47.984;7.668;2023-08-07T03:18:36;3.67;;;1.73;;
2388;SDS011;1205;47.984;7.668;2023-08-07T03:21:02;1.60;;;1.50;;
2388;SDS011;1205;47.984;7.668;2023-08-07T03:23:28;1.73;;;1.63;;
2388;SDS011;1205;47.984;7.668;2023-08-07T03:28:35;3.63;;;2.03;;
2388;SDS011;1205;47.984;7.668;2023-08-07T03:31:01;2.10;;;2.00;;
2388;SDS011;1205;47.984;7.668;2023-08-07T03:33:27;1.80;;;1.70;;
2388;SDS011;1205;47.984;7.668;2023-08-07T03:35:53;4.30;;;1.87;;
2388;SDS011;1205;47.984;7.668;2023-08-07T03:38:19;3.90;;;1.73;;
2388;SDS011;1205;47.984;7.668;2023-08-07T03:40:44;4.50;;;1.40;;
2388;SDS011;1205;47.984;7.668;2023-08-07T03:43:10;1.80;;;1.70;;
2388;SDS011;1205;47.984;7.668;2023-08-07T03:45:36;1.87;;;1.77;;
2388;SDS011;1205;47.984;7.668;2023-08-07T03:48:02;5.30;;;2.50;;
2388;SDS011;1205;47.984;7.668;2023-08-07T03:50:27;1.80;;;1.70;;
2388;SDS011;1205;47.984;7.668;2023-08-07T03:52:55;1.77;;;1.67;;
2388;SDS011;1205;47.984;7.668;2023-08-07T03:55:21;1.20;;;1.20;;
2388;SDS011;1205;47.984;7.668;2023-08-07T03:57:46;4.93;;;1.60;;
2388;SDS011;1205;47.984;7.668;2023-08-07T04:00:12;2.20;;;2.00;;
2388;SDS011;1205;47.984;7.668;2023-08-07T04:02:38;2.10;;;1.33;;
2388;SDS011;1205;47.984;7.668;2023-08-07T04:05:04;2.63;;;2.10;;
2388;SDS011;1205;47.984;7.668;2023-08-07T04:07:29;1.97;;;1.87;;
2388;SDS011;1205;47.984;7.668;2023-08-07T04:09:55;2.10;;;2.00;;
2388;SDS011;1205;47.984;7.668;2023-08-07T04:12:20;1.70;;;1.60;;
2388;SDS011;1205;47.984;7.668;2023-08-07T04:14:46;1.57;;;1.47;;
2388;SDS011;1205;47.984;7.668;2023-08-07T04:17:11;4.00;;;1.90;;
2388;SDS011;1205;47.984;7.668;2023-08-07T04:19:37;1.97;;;1.87;;
2388;SDS011;1205;47.984;7.668;2023-08-07T04:22:03;3.23;;;2.03;;
2388;SDS011;1205;47.984;7.668;2023-08-07T04:24:28;1.77;;;1.67;;
2388;SDS011;1205;47.984;7.668;2023-08-07T04:26:54;5.53;;;1.80;;
2388;SDS011;1205;47.984;7.668;2023-08-07T04:29:19;1.80;;;1.70;;
2388;SDS011;1205;47.984;7.668;2023-08-07T04:31:45;1.63;;;1.63;;
2388;SDS011;1205;47.984;7.668;2023-08-07T04:34:10;1.90;;;1.80;;
2388;SDS011;1205;47.984;7.668;2023-08-07T04:36:37;2.20;;;1.90;;
2388;SDS011;1205;47.984;7.668;2023-08-07T04:39:03;2.00;;;1.90;;
2388;SDS011;1205;47.984;7.668;2023-08-07T04:41:28;2.50;;;2.00;;
2388;SDS011;1205;47.984;7.668;2023-08-07T04:43:54;2.50;;;1.93;;
2388;SDS011;1205;47.984;7.668;2023-08-07T04:46:19;4.97;;;1.93;;
2388;SDS011;1205;47.984;7.668;2023-08-07T04:48:45;2.50;;;1.73;;
2388;SDS011;1205;47.984;7.668;2023-08-07T04:51:12;1.80;;;1.70;;
2388;SDS011;1205;47.984;7.668;2023-08-07T04:53:38;2.20;;;2.00;;
2388;SDS011;1205;47.984;7.668;2023-08-07T04:56:03;2.20;;;1.60;;
2388;SDS011;1205;47.984;7.668;2023-08-07T04:58:29;2.13;;;1.93;;
2388;SDS011;1205;47.984;7.668;2023-08-07T05:00:55;8.70;;;2.40;;
2388;SDS011;1205;47.984;7.668;2023-08-07T05:03:21;3.13;;;2.20;;
2388;SDS011;1205;47.984;7.668;2023-08-07T05:05:47;2.60;;;2.50;;
2388;SDS011;1205;47.984;7.668;2023-08-07T05:08:12;2.13;;;2.00;;
2388;SDS011;1205;47.984;7.668;2023-08-07T05:10:38;2.30;;;2.10;;
2388;SDS011;1205;47.984;7.668;2023-08-07T05:13:03;6.63;;;1.80;;
2388;SDS011;1205;47.984;7.668;2023-08-07T05:15:29;7.93;;;2.27;;
2388;SDS011;1205;47.984;7.668;2023-08-07T05:17:56;7.33;;;1.80;;
2388;SDS011;1205;47.984;7.668;2023-08-07T05:20:22;1.90;;;1.80;;
2388;SDS011;1205;47.984;7.668;2023-08-07T05:22:48;7.83;;;1.77;;
2388;SDS011;1205;47.984;7.668;2023-08-07T05:25:14;3.93;;;1.90;;
2388;SDS011;1205;47.984;7.668;2023-08-07T05:27:44;3.40;;;2.77;;
2388;SDS011;1205;47.984;7.668;2023-08-07T05:30:10;2.53;;;1.93;;
2388;SDS011;1205;47.984;7.668;2023-08-07T05:32:36;6.93;;;2.10;;
2388;SDS011;1205;47.984;7.668;2023-08-07T05:35:05;5.30;;;1.97;;
2388;SDS011;1205;47.984;7.668;2023-08-07T05:37:32;1.70;;;1.60;;
2388;SDS011;1205;47.984;7.668;2023-08-07T05:40:01;1.67;;;1.50;;
2388;SDS011;1205;47.984;7.668;2023-08-07T05:42:27;1.67;;;1.57;;
2388;SDS011;1205;47.984;7.668;2023-08-07T05:44:53;7.63;;;1.83;;
2388;SDS011;1205;47.984;7.668;2023-08-07T05:47:19;3.20;;;1.73;;
2388;SDS011;1205;47.984;7.668;2023-08-07T05:49:44;1.60;;;1.50;;
2388;SDS011;1205;47.984;7.668;2023-08-07T05:52:10;5.70;;;2.07;;
2388;SDS011;1205;47.984;7.668;2023-08-07T05:54:35;2.50;;;1.80;;
2388;SDS011;1205;47.984;7.668;2023-08-07T05:57:01;5.23;;;2.37;;
2388;SDS011;1205;47.984;7.668;2023-08-07T05:59:26;2.27;;;2.00;;
2388;SDS011;1205;47.984;7.668;2023-08-07T06:01:53;4.20;;;1.73;;
2388;SDS011;1205;47.984;7.668;2023-08-07T06:04:18;1.77;;;1.50;;
2388;SDS011;1205;47.984;7.668;2023-08-07T06:06:45;4.37;;;1.87;;
2388;SDS011;1205;47.984;7.668;2023-08-07T06:09:11;2.43;;;1.50;;
2388;SDS011;1205;47.984;7.668;2023-08-07T06:11:37;2.30;;;1.30;;
2388;SDS011;1205;47.984;7.668;2023-08-07T06:14:02;2.10;;;1.50;;
2388;SDS011;1205;47.984;7.668;2023-08-07T06:16:28;2.53;;;1.70;;
2388;SDS011;1205;47.984;7.668;2023-08-07T06:18:54;2.73;;;1.70;;
2388;SDS011;1205;47.984;7.668;2023-08-07T06:21:19;3.10;;;1.53;;
2388;SDS011;1205;47.984;7.668;2023-08-07T06:23:45;2.10;;;1.53;;
2388;SDS011;1205;47.984;7.668;2023-08-07T06:26:11;2.00;;;1.30;;
2388;SDS011;1205;47.984;7.668;2023-08-07T06:28:37;2.80;;;1.43;;
2388;SDS011;1205;47.984;7.668;2023-08-07T06:31:07;3.50;;;1.63;;
2388;SDS011;1205;47.984;7.668;2023-08-07T06:33:33;1.33;;;1.23;;
2388;SDS011;1205;47.984;7.668;2023-08-07T06:36:00;1.27;;;1.17;;
2388;SDS011;1205;47.984;7.668;2023-08-07T06:38:26;2.77;;;1.50;;
2388;SDS011;1205;47.984;7.668;2023-08-07T06:40:51;1.80;;;1.53;;
2388;SDS011;1205;47.984;7.668;2023-08-07T06:43:17;3.57;;;1.47;;
2388;SDS011;1205;47.984;7.668;2023-08-07T06:45:43;1.83;;;1.53;;
2388;SDS011;1205;47.984;7.668;2023-08-07T06:48:11;4.57;;;1.90;;
2388;SDS011;1205;47.984;7.668;2023-08-07T06:50:37;1.57;;;1.57;;
2388;SDS011;1205;47.984;7.668;2023-08-07T06:53:02;1.70;;;1.60;;
2388;SDS011;1205;47.984;7.668;2023-08-07T06:55:28;1.80;;;1.43;;
2388;SDS011;1205;47.984;7.668;2023-08-07T06:57:53;1.60;;;1.40;;
2388;SDS011;1205;47.984;7.668;2023-08-07T07:00:19;2.00;;;1.47;;
2388;SDS011;1205;47.984;7.668;2023-08-07T07:02:44;1.77;;;1.43;;
2388;SDS011;1205;47.984;7.668;2023-08-07T07:05:10;1.33;;;1.20;;
2388;SDS011;1205;47.984;7.668;2023-08-07T07:07:36;1.20;;;1.20;;
2388;SDS011;1205;47.984;7.668;2023-08-07T07:10:01;2.33;;;1.43;;
2388;SDS011;1205;47.984;7.668;2023-08-07T07:12:27;2.30;;;1.30;;
2388;SDS011;1205;47.984;7.668;2023-08-07T07:14:53;4.77;;;1.30;;
2388;SDS011;1205;47.984;7.668;2023-08-07T07:17:18;1.87;;;1.77;;
2388;SDS011;1205;47.984;7.668;2023-08-07T07:19:44;2.40;;;1.63;;
2388;SDS011;1205;47.984;7.668;2023-08-07T07:22:09;1.10;;;1.10;;
2388;SDS011;1205;47.984;7.668;2023-08-07T07:24:35;3.80;;;1.63;;
2388;SDS011;1205;47.984;7.668;2023-08-07T07:27:00;2.70;;;1.70;;
2388;SDS011;1205;47.984;7.668;2023-08-07T07:29:26;1.50;;;1.33;;
2388;SDS011;1205;47.984;7.668;2023-08-07T07:31:52;1.80;;;1.70;;
2388;SDS011;1205;47.984;7.668;2023-08-07T07:34:19;1.43;;;1.27;;
2388;SDS011;1205;47.984;7.668;2023-08-07T07:36:45;3.53;;;1.70;;
2388;SDS011;1205;47.984;7.668;2023-08-07T07:39:11;2.70;;;2.00;;
2388;SDS011;1205;47.984;7.668;2023-08-07T07:41:36;1.67;;;1.57;;
2388;SDS011;1205;47.984;7.668;2023-08-07T07:44:02;1.80;;;1.33;;
2388;SDS011;1205;47.984;7.668;2023-08-07T07:46:28;4.10;;;1.50;;
2388;SDS011;1205;47.984;7.668;2023-08-07T07:48:53;1.80;;;1.70;;
2388;SDS011;1205;47.984;7.668;2023-08-07T07:51:20;2.30;;;1.73;;
2388;SDS011;1205;47.984;7.668;2023-08-07T07:53:46;1.27;;;1.27;;
2388;SDS011;1205;47.984;7.668;2023-08-07T07:56:12;2.30;;;1.10;;
2388;SDS011;1205;47.984;7.668;2023-08-07T07:58:37;1.80;;;1.43;;
2388;SDS011;1205;47.984;7.668;2023-08-07T08:01:03;1.93;;;1.40;;
2388;SDS011;1205;47.984;7.668;2023-08-07T08:03:29;1.57;;;1.47;;
2388;SDS011;1205;47.984;7.668;2023-08-07T08:05:54;2.23;;;1.40;;
2388;SDS011;1205;47.984;7.668;2023-08-07T08:08:20;1.37;;;1.30;;
2388;SDS011;1205;47.984;7.668;2023-08-07T08:10:46;1.77;;;1.67;;
2388;SDS011;1205;47.984;7.668;2023-08-07T08:13:13;1.83;;;1.73;;
2388;SDS011;1205;47.984;7.668;2023-08-07T08:15:42;2.07;;;1.60;;
2388;SDS011;1205;47.984;7.668;2023-08-07T08:18:08;2.50;;;1.43;;
2388;SDS011;1205;47.984;7.668;2023-08-07T08:20:33;1.20;;;1.20;;
2388;SDS011;1205;47.984;7.668;2023-08-07T08:22:59;1.47;;;1.37;;
2388;SDS011;1205;47.984;7.668;2023-08-07T08:25:25;1.90;;;1.60;;
2388;SDS011;1205;47.984;7.668;2023-08-07T08:27:50;2.70;;;2.00;;
2388;SDS011;1205;47.984;7.668;2023-08-07T08:30:16;9.00;;;2.50;;
2388;SDS011;1205;47.984;7.668;2023-08-07T08:32:42;3.77;;;2.30;;
2388;SDS011;1205;47.984;7.668;2023-08-07T08:35:08;1.57;;;1.47;;
2388;SDS011;1205;47.984;7.668;2023-08-07T08:37:34;6.97;;;1.90;;
2388;SDS011;1205;47.984;7.668;2023-08-07T08:39:59;1.60;;;1.50;;
2388;SDS011;1205;47.984;7.668;2023-08-07T08:42:25;2.80;;;1.43;;
2388;SDS011;1205;47.984;7.668;2023-08-07T08:44:52;2.13;;;1.80;;
2388;SDS011;1205;47.984;7.668;2023-08-07T08:47:23;2.80;;;2.40;;
2388;SDS011;1205;47.984;7.668;2023-08-07T08:49:53;6.10;;;2.50;;
2388;SDS011;1205;47.984;7.668;2023-08-07T08:52:44;2.03;;;1.90;;
2388;SDS011;1205;47.984;7.668;2023-08-07T08:55:10;3.00;;;1.67;;
2388;SDS011;1205;47.984;7.668;2023-08-07T08:57:37;2.30;;;1.50;;
2388;SDS011;1205;47.984;7.668;2023-08-07T09:00:05;1.37;;;1.27;;
2388;SDS011;1205;47.984;7.668;2023-08-07T09:02:41;1.77;;;1.40;;
2388;SDS011;1205;47.984;7.668;2023-08-07T09:05:08;5.03;;;1.63;;
2388;SDS011;1205;47.984;7.668;2023-08-07T09:07:34;3.13;;;1.70;;
2388;SDS011;1205;47.984;7.668;2023-08-07T09:10:00;2.33;;;1.30;;
2388;SDS011;1205;47.984;7.668;2023-08-07T09:12:29;1.27;;;1.00;;
2388;SDS011;1205;47.984;7.668;2023-08-07T09:14:57;1.10;;;1.10;;
2388;SDS011;1205;47.984;7.668;2023-08-07T09:17:24;2.57;;;1.67;;
2388;SDS011;1205;47.984;7.668;2023-08-07T09:19:59;2.70;;;1.50;;
2388;SDS011;1205;47.984;7.668;2023-08-07T09:22:25;1.57;;;1.47;;
2388;SDS011;1205;47.984;7.668;2023-08-07T09:24:51;3.47;;;1.93;;
2388;SDS011;1205;47.984;7.668;2023-08-07T09:27:17;4.43;;;1.50;;
2388;SDS011;1205;47.984;7.668;2023-08-07T09:29:43;1.40;;;1.30;;
2388;SDS011;1205;47.984;7.668;2023-08-07T09:32:14;1.30;;;1.30;;
2388;SDS011;1205;47.984;7.668;2023-08-07T09:34:40;1.50;;;1.40;;
2388;SDS011;1205;47.984;7.668;2023-08-07T09:37:07;2.43;;;1.37;;
2388;SDS011;1205;47.984;7.668;2023-08-07T09:39:33;2.67;;;1.40;;
2388;SDS011;1205;47.984;7.668;2023-08-07T09:42:00;2.97;;;1.30;;
2388;SDS011;1205;47.984;7.668;2023-08-07T09:44:34;2.60;;;1.57;;
2388;SDS011;1205;47.984;7.668;2023-08-07T09:47:01;2.73;;;1.50;;
2388;SDS011;1205;47.984;7.668;2023-08-07T09:49:40;2.23;;;1.70;;
2388;SDS011;1205;47.984;7.668;2023-08-07T09:52:07;2.20;;;1.47;;
2388;SDS011;1205;47.984;7.668;2023-08-07T09:54:33;1.87;;;1.70;;
2388;SDS011;1205;47.984;7.668;2023-08-07T09:57:01;7.73;;;1.50;;
2388;SDS011;1205;47.984;7.668;2023-08-07T09:59:27;4.23;;;1.50;;
2388;SDS011;1205;47.984;7.668;2023-08-07T10:01:54;1.60;;;1.40;;
2388;SDS011;1205;47.984;7.668;2023-08-07T10:04:20;2.73;;;1.77;;
2388;SDS011;1205;47.984;7.668;2023-08-07T10:06:46;3.90;;;1.77;;
2388;SDS011;1205;47.984;7.668;2023-08-07T10:09:13;2.47;;;1.60;;
2388;SDS011;1205;47.984;7.668;2023-08-07T10:11:38;1.20;;;1.10;;
2388;SDS011;1205;47.984;7.668;2023-08-07T10:14:05;2.10;;;1.07;;
2388;SDS011;1205;47.984;7.668;2023-08-07T10:16:31;3.47;;;1.37;;
2388;SDS011;1205;47.984;7.668;2023-08-07T10:18:57;3.03;;;1.87;;
2388;SDS011;1205;47.984;7.668;2023-08-07T10:21:23;1.80;;;1.50;;
2388;SDS011;1205;47.984;7.668;2023-08-07T10:23:50;1.47;;;1.33;;
2388;SDS011;1205;47.984;7.668;2023-08-07T10:26:18;5.30;;;1.40;;
2388;SDS011;1205;47.984;7.668;2023-08-07T10:28:46;2.97;;;1.10;;
2388;SDS011;1205;47.984;7.668;2023-08-07T10:31:15;1.53;;;1.43;;
2388;SDS011;1205;47.984;7.668;2023-08-07T10:33:42;1.80;;;1.70;;
2388;SDS011;1205;47.984;7.668;2023-08-07T10:36:08;5.40;;;1.40;;
2388;SDS011;1205;47.984;7.668;2023-08-07T10:38:35;2.60;;;1.33;;
2388;SDS011;1205;47.984;7.668;2023-08-07T10:41:14;2.70;;;2.07;;
2388;SDS011;1205;47.984;7.668;2023-08-07T10:43:40;1.77;;;1.63;;
2388;SDS011;1205;47.984;7.668;2023-08-07T10:48:45;1.23;;;1.13;;
2388;SDS011;1205;47.984;7.668;2023-08-07T10:51:16;2.40;;;1.10;;
2388;SDS011;1205;47.984;7.668;2023-08-07T10:56:17;3.90;;;1.30;;
2388;SDS011;1205;47.984;7.668;2023-08-07T10:58:53;1.73;;;1.17;;
2388;SDS011;1205;47.984;7.668;2023-08-07T11:03:55;2.10;;;1.40;;
2388;SDS011;1205;47.984;7.668;2023-08-07T11:06:26;2.60;;;1.30;;
2388;SDS011;1205;47.984;7.668;2023-08-07T11:08:58;1.70;;;1.03;;
2388;SDS011;1205;47.984;7.668;2023-08-07T11:11:26;1.77;;;1.20;;
2388;SDS011;1205;47.984;7.668;2023-08-07T11:13:52;1.47;;;1.20;;
2388;SDS011;1205;47.984;7.668;2023-08-07T11:16:18;1.17;;;1.17;;
2388;SDS011;1205;47.984;7.668;2023-08-07T11:18:45;1.20;;;1.20;;
2388;SDS011;1205;47.984;7.668;2023-08-07T11:21:12;1.00;;;0.83;;
2388;SDS011;1205;47.984;7.668;2023-08-07T11:23:38;1.13;;;1.10;;
2388;SDS011;1205;47.984;7.668;2023-08-07T11:26:04;4.40;;;1.40;;
2388;SDS011;1205;47.984;7.668;2023-08-07T11:28:30;0.90;;;0.90;;
2388;SDS011;1205;47.984;7.668;2023-08-07T11:30:56;1.90;;;1.10;;
2388;SDS011;1205;47.984;7.668;2023-08-07T11:33:25;1.33;;;1.23;;
2388;SDS011;1205;47.984;7.668;2023-08-07T11:35:52;1.90;;;1.10;;
2388;SDS011;1205;47.984;7.668;2023-08-07T11:38:37;1.60;;;1.50;;
2388;SDS011;1205;47.984;7.668;2023-08-07T11:41:13;1.17;;;1.07;;
2388;SDS011;1205;47.984;7.668;2023-08-07T11:43:41;1.00;;;1.00;;
2388;SDS011;1205;47.984;7.668;2023-08-07T11:46:08;2.10;;;1.40;;
2388;SDS011;1205;47.984;7.668;2023-08-07T11:48:36;1.17;;;1.10;;
2388;SDS011;1205;47.984;7.668;2023-08-07T11:51:02;2.30;;;1.20;;
2388;SDS011;1205;47.984;7.668;2023-08-07T11:53:29;3.60;;;1.40;;
2388;SDS011;1205;47.984;7.668;2023-08-07T11:56:01;1.77;;;1.10;;
2388;SDS011;1205;47.984;7.668;2023-08-07T11:58:40;1.47;;;1.37;;
2388;SDS011;1205;47.984;7.668;2023-08-07T12:01:14;1.50;;;1.40;;
2388;SDS011;1205;47.984;7.668;2023-08-07T12:03:42;2.10;;;1.20;;
2388;SDS011;1205;47.984;7.668;2023-08-07T12:06:15;1.93;;;1.30;;
2388;SDS011;1205;47.984;7.668;2023-08-07T12:08:41;1.83;;;1.40;;
2388;SDS011;1205;47.984;7.668;2023-08-07T12:11:08;2.50;;;1.30;;
2388;SDS011;1205;47.984;7.668;2023-08-07T12:13:38;5.60;;;1.30;;
2388;SDS011;1205;47.984;7.668;2023-08-07T12:16:06;1.97;;;1.13;;
2388;SDS011;1205;47.984;7.668;2023-08-07T12:18:33;2.93;;;1.47;;
2388;SDS011;1205;47.984;7.668;2023-08-07T12:21:01;1.10;;;1.10;;
2388;SDS011;1205;47.984;7.668;2023-08-07T12:23:32;1.83;;;0.93;;
2388;SDS011;1205;47.984;7.668;2023-08-07T12:25:59;0.97;;;0.97;;
2388;SDS011;1205;47.984;7.668;2023-08-07T12:28:24;6.23;;;1.20;;
2388;SDS011;1205;47.984;7.668;2023-08-07T12:30:50;1.73;;;1.23;;
2388;SDS011;1205;47.984;7.668;2023-08-07T12:33:16;2.50;;;1.20;;
2388;SDS011;1205;47.984;7.668;2023-08-07T12:35:42;1.97;;;1.07;;
2388;SDS011;1205;47.984;7.668;2023-08-07T12:38:09;1.43;;;1.10;;
2388;SDS011;1205;47.984;7.668;2023-08-07T12:40:35;1.20;;;1.10;;
2388;SDS011;1205;47.984;7.668;2023-08-07T12:43:01;1.53;;;1.37;;
2388;SDS011;1205;47.984;7.668;2023-08-07T12:45:27;1.13;;;1.07;;
2388;SDS011;1205;47.984;7.668;2023-08-07T12:47:52;1.23;;;1.23;;
2388;SDS011;1205;47.984;7.668;2023-08-07T12:50:18;1.00;;;1.00;;
2388;SDS011;1205;47.984;7.668;2023-08-07T12:52:44;0.93;;;0.93;;
2388;SDS011;1205;47.984;7.668;2023-08-07T12:55:10;0.87;;;0.87;;
2388;SDS011;1205;47.984;7.668;2023-08-07T12:57:37;1.03;;;1.00;;
2388;SDS011;1205;47.984;7.668;2023-08-07T13:00:07;0.90;;;0.90;;
2388;SDS011;1205;47.984;7.668;2023-08-07T13:02:37;1.53;;;1.20;;
2388;SDS011;1205;47.984;7.668;2023-08-07T13:05:04;1.97;;;1.00;;
2388;SDS011;1205;47.984;7.668;2023-08-07T13:07:30;2.93;;;1.37;;
2388;SDS011;1205;47.984;7.668;2023-08-07T13:09:56;5.80;;;1.10;;
2388;SDS011;1205;47.984;7.668;2023-08-07T13:12:22;1.83;;;1.23;;
2388;SDS011;1205;47.984;7.668;2023-08-07T13:14:48;1.30;;;1.20;;
2388;SDS011;1205;47.984;7.668;2023-08-07T13:17:13;0.90;;;0.90;;
2388;SDS011;1205;47.984;7.668;2023-08-07T13:19:39;1.10;;;1.00;;
2388;SDS011;1205;47.984;7.668;2023-08-07T13:22:04;1.30;;;1.20;;
2388;SDS011;1205;47.984;7.668;2023-08-07T13:24:30;1.00;;;1.00;;
2388;SDS011;1205;47.984;7.668;2023-08-07T13:26:56;1.10;;;1.10;;
2388;SDS011;1205;47.984;7.668;2023-08-07T13:29:22;3.20;;;1.07;;
2388;SDS011;1205;47.984;7.668;2023-08-07T13:31:47;0.97;;;0.97;;
2388;SDS011;1205;47.984;7.668;2023-08-07T13:34:13;1.30;;;1.20;;
2388;SDS011;1205;47.984;7.668;2023-08-07T13:36:39;0.83;;;0.83;;
2388;SDS011;1205;47.984;7.668;2023-08-07T13:39:05;0.97;;;0.97;;
2388;SDS011;1205;47.984;7.668;2023-08-07T13:41:31;3.07;;;1.27;;
2388;SDS011;1205;47.984;7.668;2023-08-07T13:43:57;1.83;;;0.97;;
2388;SDS011;1205;47.984;7.668;2023-08-07T13:46:23;0.90;;;0.90;;
2388;SDS011;1205;47.984;7.668;2023-08-07T13:48:48;1.13;;;1.03;;
2388;SDS011;1205;47.984;7.668;2023-08-07T13:51:14;1.83;;;0.90;;
2388;SDS011;1205;47.984;7.668;2023-08-07T13:53:41;1.50;;;1.40;;
2388;SDS011;1205;47.984;7.668;2023-08-07T13:56:07;1.20;;;1.10;;
2388;SDS011;1205;47.984;7.668;2023-08-07T13:58:36;1.20;;;1.20;;
2388;SDS011;1205;47.984;7.668;2023-08-07T14:01:01;2.37;;;1.10;;
2388;SDS011;1205;47.984;7.668;2023-08-07T14:03:27;1.37;;;1.00;;
2388;SDS011;1205;47.984;7.668;2023-08-07T14:05:52;1.03;;;0.90;;
2388;SDS011;1205;47.984;7.668;2023-08-07T14:08:18;1.10;;;1.00;;
2388;SDS011;1205;47.984;7.668;2023-08-07T14:10:44;0.80;;;0.80;;
2388;SDS011;1205;47.984;7.668;2023-08-07T14:13:09;1.20;;;0.87;;
2388;SDS011;1205;47.984;7.668;2023-08-07T14:15:36;0.83;;;0.83;;
2388;SDS011;1205;47.984;7.668;2023-08-07T14:18:02;1.27;;;1.10;;
2388;SDS011;1205;47.984;7.668;2023-08-07T14:20:28;1.33;;;1.10;;
2388;SDS011;1205;47.984;7.668;2023-08-07T14:22:53;0.80;;;0.80;;
2388;SDS011;1205;47.984;7.668;2023-08-07T14:25:19;2.20;;;0.90;;
2388;SDS011;1205;47.984;7.668;2023-08-07T14:27:47;1.00;;;1.00;;
2388;SDS011;1205;47.984;7.668;2023-08-07T14:30:14;0.97;;;0.97;;
2388;SDS011;1205;47.984;7.668;2023-08-07T14:32:40;2.30;;;1.00;;
2388;SDS011;1205;47.984;7.668;2023-08-07T14:35:07;1.13;;;1.13;;
2388;SDS011;1205;47.984;7.668;2023-08-07T14:37:33;0.80;;;0.80;;
2388;SDS011;1205;47.984;7.668;2023-08-07T14:39:58;1.00;;;0.90;;
2388;SDS011;1205;47.984;7.668;2023-08-07T14:42:24;1.10;;;1.10;;
2388;SDS011;1205;47.984;7.668;2023-08-07T14:44:50;1.07;;;0.97;;
2388;SDS011;1205;47.984;7.668;2023-08-07T14:47:15;1.03;;;0.97;;
2388;SDS011;1205;47.984;7.668;2023-08-07T14:49:41;2.30;;;1.17;;
2388;SDS011;1205;47.984;7.668;2023-08-07T14:52:06;0.90;;;0.90;;
2388;SDS011;1205;47.984;7.668;2023-08-07T14:54:32;2.30;;;0.83;;
2388;SDS011;1205;47.984;7.668;2023-08-07T14:56:58;0.90;;;0.90;;
2388;SDS011;1205;47.984;7.668;2023-08-07T14:59:24;0.80;;;0.80;;
2388;SDS011;1205;47.984;7.668;2023-08-07T15:01:50;0.97;;;0.97;;
2388;SDS011;1205;47.984;7.668;2023-08-07T15:04:16;0.93;;;0.93;;
2388;SDS011;1205;47.984;7.668;2023-08-07T15:06:41;0.80;;;0.80;;
2388;SDS011;1205;47.984;7.668;2023-08-07T15:09:07;1.90;;;1.00;;
2388;SDS011;1205;47.984;7.668;2023-08-07T15:11:34;0.93;;;0.93;;
2388;SDS011;1205;47.984;7.668;2023-08-07T15:14:00;0.90;;;0.90;;
2388;SDS011;1205;47.984;7.668;2023-08-07T15:16:25;0.80;;;0.80;;
2388;SDS011;1205;47.984;7.668;2023-08-07T15:18:51;3.77;;;0.90;;
2388;SDS011;1205;47.984;7.668;2023-08-07T15:21:16;0.80;;;0.80;;
2388;SDS011;1205;47.984;7.668;2023-08-07T15:23:43;1.53;;;1.10;;
2388;SDS011;1205;47.984;7.668;2023-08-07T15:26:08;1.63;;;0.93;;
2388;SDS011;1205;47.984;7.668;2023-08-07T15:28:34;0.60;;;0.60;;